Time;durP1;ratioP1;P1;durP2;ratioP2;P2;SDS_P1;SDS_P2;PMS_P1;PMS_P2;Temp;Humidity;BMP_temperature;BMP_pressure;BME280_temperature;BME280_humidity;BME280_pressure;Samples;Min_cycle;Max_cycle;Signal;HPM_P1;HPM_P2
2020/12/05 00:00:53;;;;;;;60.00;28.90;;;-1.10;99.90;;;;;;4750894;30;20058;-77
2020/12/05 00:03:19;;;;;;;51.25;26.15;;;-1.10;99.90;;;;;;4752054;30;20079;-77
2020/12/05 00:05:50;;;;;;;57.40;27.10;;;-1.00;99.90;;;;;;4767799;30;20108;-77
2020/12/05 00:08:23;;;;;;;51.92;26.92;;;-1.00;99.90;;;;;;4784042;30;20076;-77
2020/12/05 00:10:49;;;;;;;55.78;28.90;;;-1.10;99.90;;;;;;4760382;30;20043;-77
2020/12/05 00:13:15;;;;;;;47.30;25.42;;;-1.10;99.90;;;;;;4770418;30;20426;-78
2020/12/05 00:15:47;;;;;;;47.42;24.30;;;-1.10;99.90;;;;;;4770686;30;20226;-78
2020/12/05 00:18:14;;;;;;;42.60;22.17;;;-1.00;99.90;;;;;;4769930;30;20142;-78
2020/12/05 00:20:41;;;;;;;37.63;19.25;;;-1.00;99.90;;;;;;4785447;30;20575;-78
2020/12/05 00:23:08;;;;;;;36.53;18.08;;;-1.10;99.90;;;;;;4767378;30;20059;-78
2020/12/05 00:25:35;;;;;;;38.72;19.75;;;-1.20;99.90;;;;;;4769646;30;20411;-78
2020/12/05 00:28:06;;;;;;;38.85;18.42;;;-1.20;99.90;;;;;;4769569;30;20093;-78
2020/12/05 00:30:34;;;;;;;36.00;19.33;;;-1.20;99.90;;;;;;4792716;30;20063;-78
2020/12/05 00:33:05;;;;;;;36.80;17.70;;;-1.30;99.90;;;;;;4770686;30;20424;-77
2020/12/05 00:35:36;;;;;;;36.58;18.20;;;-1.30;99.90;;;;;;4785300;30;20039;-77
2020/12/05 00:38:07;;;;;;;37.10;20.15;;;-1.30;99.90;;;;;;4770492;30;20054;-77
2020/12/05 00:40:38;;;;;;;43.53;23.50;;;-1.30;99.90;;;;;;4785052;30;20053;-77
2020/12/05 00:43:10;;;;;;;43.55;21.10;;;-1.30;99.90;;;;;;4785435;29;20420;-77
2020/12/05 00:45:41;;;;;;;43.72;21.88;;;-1.40;99.90;;;;;;4770778;30;20052;-77
2020/12/05 00:48:15;;;;;;;42.08;21.45;;;-1.50;99.90;;;;;;4784751;30;20067;-77
2020/12/05 00:50:47;;;;;;;40.92;21.02;;;-1.60;99.90;;;;;;4784538;30;20067;-77
2020/12/05 00:53:13;;;;;;;40.47;21.02;;;-1.60;99.90;;;;;;4769995;30;20055;-77
2020/12/05 00:55:45;;;;;;;42.60;20.70;;;-1.60;99.90;;;;;;4784993;30;20054;-77
2020/12/05 00:58:16;;;;;;;41.03;20.67;;;-1.60;99.90;;;;;;4784497;30;20074;-77
2020/12/05 01:00:43;;;;;;;43.80;21.02;;;-1.60;99.90;;;;;;4769800;30;20142;-77
2020/12/05 01:03:14;;;;;;;41.22;21.67;;;-1.60;99.90;;;;;;4770407;30;20419;-78
2020/12/05 01:05:45;;;;;;;40.50;20.25;;;-1.60;99.90;;;;;;4784971;30;20055;-77
2020/12/05 01:08:12;;;;;;;42.88;22.88;;;-1.60;99.90;;;;;;4769802;30;20051;-77
2020/12/05 01:10:38;;;;;;;47.60;22.10;;;-1.70;99.90;;;;;;4769764;29;20087;-77
2020/12/05 01:13:04;;;;;;;44.22;20.58;;;-1.70;99.90;;;;;;4769432;30;20055;-77
2020/12/05 01:15:35;;;;;;;43.28;21.60;;;-1.70;99.90;;;;;;4784796;30;20054;-77
2020/12/05 01:18:02;;;;;;;42.65;20.95;;;-1.70;99.90;;;;;;4784332;30;20134;-77
2020/12/05 01:20:33;;;;;;;47.85;21.48;;;-1.70;99.90;;;;;;4784704;30;20051;-77
2020/12/05 01:23:04;;;;;;;46.20;24.02;;;-1.60;99.90;;;;;;4770231;30;20047;-77
2020/12/05 01:25:31;;;;;;;43.55;20.48;;;-1.60;99.90;;;;;;4769480;30;20491;-77
2020/12/05 01:28:02;;;;;;;38.47;19.95;;;-1.60;99.90;;;;;;4783949;30;20054;-77
2020/12/05 01:30:33;;;;;;;39.15;19.27;;;-1.60;99.90;;;;;;4784434;30;20048;-77
2020/12/05 01:33:05;;;;;;;39.58;19.52;;;-1.60;99.90;;;;;;4784065;29;20075;-77
2020/12/05 01:35:36;;;;;;;41.33;19.55;;;-1.70;99.90;;;;;;4784300;30;20048;-77
2020/12/05 01:38:02;;;;;;;42.15;20.83;;;-1.70;99.90;;;;;;4768891;30;20146;-77
2020/12/05 01:40:28;;;;;;;44.40;21.23;;;-1.60;99.90;;;;;;4769463;30;20153;-77
2020/12/05 01:42:59;;;;;;;42.53;20.77;;;-1.70;99.90;;;;;;4769936;29;20065;-77
2020/12/05 01:45:26;;;;;;;47.60;21.77;;;-1.70;99.90;;;;;;4784050;30;20515;-77
2020/12/05 01:47:57;;;;;;;45.15;22.80;;;-1.70;99.90;;;;;;4784129;30;20053;-77
2020/12/05 01:50:23;;;;;;;47.15;24.73;;;-1.70;99.90;;;;;;4769268;30;20083;-77
2020/12/05 01:52:50;;;;;;;44.15;21.40;;;-1.70;99.90;;;;;;4769090;29;20142;-77
2020/12/05 01:55:18;;;;;;;45.70;21.98;;;-1.70;99.90;;;;;;4769316;30;20151;-77
2020/12/05 01:57:44;;;;;;;45.85;22.10;;;-1.70;99.90;;;;;;4783800;30;20331;-77
2020/12/05 02:00:10;;;;;;;47.15;22.55;;;-1.70;99.90;;;;;;4783630;30;20139;-77
2020/12/05 02:02:37;;;;;;;45.45;21.05;;;-1.70;99.90;;;;;;4768825;29;20047;-77
2020/12/05 02:05:31;;;;;;;51.50;23.33;;;-1.60;99.90;;;;;;4783515;30;20058;-77
2020/12/05 02:08:14;;;;;;;44.60;20.85;;;-1.70;99.90;;;;;;4782559;30;20055;-77
2020/12/05 02:10:49;;;;;;;52.88;22.80;;;-1.70;99.90;;;;;;4783956;30;20506;-77
2020/12/05 02:13:37;;;;;;;44.90;21.02;;;-1.70;99.90;;;;;;4783359;29;20500;-77
2020/12/05 02:16:06;;;;;;;40.70;21.63;;;-1.60;99.90;;;;;;4768962;30;20142;-77
2020/12/05 02:18:37;;;;;;;;;;;-1.60;99.90;;;;;;4783828;30;20143;-77
2020/12/05 02:21:05;;;;;;;48.35;21.50;;;-1.60;99.90;;;;;;4783856;30;20384;-77
2020/12/05 02:23:32;;;;;;;44.55;21.77;;;-1.60;99.90;;;;;;4784838;29;20138;-77
2020/12/05 02:26:09;;;;;;;46.90;22.83;;;-1.60;99.90;;;;;;4772539;30;20141;-77
2020/12/05 02:28:35;;;;;;;44.08;21.00;;;-1.60;99.90;;;;;;4772396;30;20150;-77
2020/12/05 02:31:02;;;;;;;42.63;19.95;;;-1.60;99.90;;;;;;4787293;30;20134;-77
2020/12/05 02:33:33;;;;;;;42.00;22.08;;;-1.60;99.90;;;;;;4772807;30;20426;-77
2020/12/05 02:36:00;;;;;;;40.13;21.40;;;-1.60;99.90;;;;;;4772288;30;20142;-77
2020/12/05 02:39:00;;;;;;;45.45;22.98;;;-1.60;99.90;;;;;;4786836;30;20137;-77
2020/12/05 02:41:27;;;;;;;38.67;19.90;;;-1.50;99.90;;;;;;4772311;30;20138;-77
2020/12/05 02:43:53;;;;;;;41.15;21.88;;;-1.50;99.90;;;;;;4772143;30;20078;-76
2020/12/05 02:46:26;;;;;;;39.53;20.70;;;-1.50;99.90;;;;;;4772814;30;20143;-77
2020/12/05 02:48:52;;;;;;;48.10;21.15;;;-1.50;99.90;;;;;;4786471;30;20062;-77
2020/12/05 02:51:25;;;;;;;46.70;22.38;;;-1.50;99.90;;;;;;4772935;30;20116;-77
2020/12/05 02:53:51;;;;;;;44.50;20.98;;;-1.40;99.90;;;;;;4771984;30;20145;-77
2020/12/05 02:56:23;;;;;;;38.60;20.98;;;-1.40;99.90;;;;;;4772723;30;20583;-77
2020/12/05 02:58:49;;;;;;;46.38;22.45;;;-1.40;99.90;;;;;;4771767;30;20078;-76
2020/12/05 03:01:20;;;;;;;39.50;21.90;;;-1.30;99.90;;;;;;4787977;30;20043;-77
2020/12/05 03:03:51;;;;;;;42.10;21.75;;;-1.20;99.90;;;;;;4772482;30;20365;-77
2020/12/05 03:06:18;;;;;;;45.30;21.75;;;-1.20;99.90;;;;;;4786639;30;20090;-77
2020/12/05 03:08:49;;;;;;;37.33;20.50;;;-1.10;99.90;;;;;;4786290;30;20079;-77
2020/12/05 03:11:20;;;;;;;43.58;21.67;;;-1.10;99.90;;;;;;4787812;30;20135;-77
2020/12/05 03:13:48;;;;;;;40.70;21.13;;;-1.00;99.90;;;;;;4787645;29;20043;-77
2020/12/05 03:16:14;;;;;;;39.88;20.92;;;-0.80;99.90;;;;;;4771619;30;20592;-77
2020/12/05 03:18:45;;;;;;;41.13;20.83;;;-0.70;99.90;;;;;;4772059;30;20051;-77
2020/12/05 03:21:12;;;;;;;39.67;19.60;;;-0.50;99.90;;;;;;4771910;30;20067;-77
2020/12/05 03:23:45;;;;;;;39.55;21.52;;;-0.40;99.90;;;;;;4771510;30;20142;-77
2020/12/05 03:26:17;;;;;;;37.83;19.20;;;-0.40;99.90;;;;;;4772028;30;20138;-77
2020/12/05 03:28:43;;;;;;;37.92;18.90;;;-0.30;99.90;;;;;;4771103;30;20075;-76
2020/12/05 03:31:20;;;;;;;40.22;19.02;;;-0.30;99.90;;;;;;4786345;30;20151;-77
2020/12/05 03:33:52;;;;;;;40.67;19.60;;;-0.30;99.90;;;;;;4771827;29;20075;-77
2020/12/05 03:36:23;;;;;;;38.25;19.05;;;-0.20;99.90;;;;;;4786180;30;20054;-77
2020/12/05 03:38:53;;;;;;;32.30;18.35;;;-0.20;99.90;;;;;;4770957;30;20134;-77
2020/12/05 03:41:23;;;;;;;32.15;18.48;;;-0.20;99.90;;;;;;4771474;30;20551;-77
2020/12/05 03:43:54;;;;;;;38.92;20.48;;;-0.20;99.90;;;;;;4771904;30;20429;-77
2020/12/05 03:46:20;;;;;;;35.88;18.42;;;-0.10;99.90;;;;;;4771308;30;20158;-77
2020/12/05 03:48:47;;;;;;;38.13;18.80;;;-0.10;99.90;;;;;;4785609;30;20071;-77
2020/12/05 03:51:13;;;;;;;33.60;17.73;;;0.00;99.90;;;;;;4771436;30;20132;-77
2020/12/05 03:53:44;;;;;;;32.80;17.33;;;0.00;99.90;;;;;;4771770;30;20137;-77
2020/12/05 03:56:15;;;;;;;32.70;17.50;;;0.10;99.90;;;;;;4785887;30;20058;-77
2020/12/05 03:58:47;;;;;;;30.33;17.02;;;0.10;99.90;;;;;;4785757;30;20054;-76
2020/12/05 04:01:13;;;;;;;35.70;18.92;;;0.10;99.90;;;;;;4785883;30;20476;-77
2020/12/05 04:03:40;;;;;;;32.53;18.23;;;0.20;99.90;;;;;;4770922;30;20150;-77
2020/12/05 04:06:14;;;;;;;30.20;17.75;;;0.30;99.90;;;;;;4785702;30;20061;-77
2020/12/05 04:08:45;;;;;;;33.30;18.50;;;0.40;99.90;;;;;;4771214;30;20053;-77
2020/12/05 04:11:11;;;;;;;34.33;18.52;;;0.30;99.90;;;;;;4770708;30;20082;-77
2020/12/05 04:13:43;;;;;;;31.20;18.08;;;0.40;99.90;;;;;;4785610;29;20473;-77
2020/12/05 04:16:14;;;;;;;30.85;17.15;;;0.30;99.90;;;;;;4785509;30;20051;-76
2020/12/05 04:18:45;;;;;;;35.70;18.58;;;0.30;99.90;;;;;;4785332;30;20420;-77
2020/12/05 04:21:17;;;;;;;32.55;18.55;;;0.30;99.90;;;;;;4786718;30;20035;-77
2020/12/05 04:23:48;;;;;;;32.65;18.65;;;0.40;99.90;;;;;;4785392;29;20062;-77
2020/12/05 04:26:14;;;;;;;35.15;18.20;;;0.50;99.90;;;;;;4786390;30;20419;-77
2020/12/05 04:28:46;;;;;;;31.77;17.75;;;0.60;99.90;;;;;;4784970;30;20055;-77
2020/12/05 04:31:12;;;;;;;27.92;17.25;;;0.60;99.90;;;;;;4770456;30;20143;-77
2020/12/05 04:33:39;;;;;;;34.22;18.05;;;0.60;99.90;;;;;;4785037;29;20143;-77
2020/12/05 04:36:10;;;;;;;32.47;18.15;;;0.70;99.90;;;;;;4770875;30;20484;-77
2020/12/05 04:38:41;;;;;;;27.25;16.42;;;0.70;99.90;;;;;;4784586;30;20519;-77
2020/12/05 04:41:12;;;;;;;31.85;16.90;;;0.70;99.90;;;;;;4785088;30;20144;-77
2020/12/05 04:43:40;;;;;;;28.08;15.82;;;0.70;99.90;;;;;;4770052;30;20162;-77
2020/12/05 04:46:12;;;;;;;31.30;17.40;;;0.70;99.90;;;;;;4784481;30;20069;-77
2020/12/05 04:48:41;;;;;;;29.30;15.85;;;0.70;99.90;;;;;;4784775;30;20162;-76
2020/12/05 04:51:17;;;;;;;24.55;15.23;;;0.70;99.90;;;;;;4770620;30;20051;-77
2020/12/05 04:53:47;;;;;;;26.95;14.90;;;0.70;99.90;;;;;;4784712;29;20142;-77
2020/12/05 04:56:15;;;;;;;22.77;12.40;;;0.70;99.90;;;;;;4770001;30;20062;-77
2020/12/05 04:58:49;;;;;;;22.42;12.82;;;0.70;99.90;;;;;;4785636;30;20039;-80
2020/12/05 05:01:19;;;;;;;22.08;12.75;;;0.70;99.90;;;;;;4788011;30;20142;-79
2020/12/05 05:03:55;;;;;;;23.35;12.50;;;0.70;99.90;;;;;;4771311;30;20085;-79
2020/12/05 05:06:27;;;;;;;22.35;13.13;;;0.70;99.90;;;;;;4787148;30;20050;-79
2020/12/05 05:08:54;;;;;;;21.98;13.02;;;0.70;99.90;;;;;;4785523;30;20051;-79
2020/12/05 05:11:27;;;;;;;24.60;13.93;;;0.80;99.90;;;;;;4785618;30;20055;-79
2020/12/05 05:13:59;;;;;;;24.08;13.82;;;0.80;99.90;;;;;;4770492;30;20183;-79
2020/12/05 05:16:28;;;;;;;20.48;12.43;;;0.80;99.90;;;;;;4770824;30;20058;-79
2020/12/05 05:19:20;;;;;;;;;;;0.90;99.90;;;;;;4771250;30;20053;-79
2020/12/05 05:21:48;;;;;;;23.15;12.60;;;0.90;99.90;;;;;;4770418;30;19926;-79
2020/12/05 05:24:17;;;;;;;19.73;12.38;;;0.90;99.90;;;;;;4770082;30;20055;-79
2020/12/05 05:26:57;;;;;;;22.02;13.75;;;0.90;99.90;;;;;;4770086;30;20055;-79
2020/12/05 05:29:32;;;;;;;24.88;13.75;;;0.90;99.90;;;;;;4784774;30;20062;-79
2020/12/05 05:34:27;;;;;;;19.25;12.18;;;1.00;99.90;;;;;;4784561;29;20055;-78
2020/12/05 05:36:58;;;;;;;23.92;13.40;;;1.00;99.90;;;;;;4770449;30;20055;-78
2020/12/05 05:39:26;;;;;;;22.60;14.63;;;1.10;99.90;;;;;;4769473;30;20055;-78
2020/12/05 05:41:55;;;;;;;21.58;12.77;;;1.10;99.90;;;;;;4769905;30;20139;-79
2020/12/05 05:44:28;;;;;;;24.95;13.25;;;1.10;99.90;;;;;;4769739;30;20051;-78
2020/12/05 05:46:55;;;;;;;20.00;13.32;;;1.10;99.90;;;;;;4784745;30;20198;-78
2020/12/05 05:49:32;;;;;;;24.20;13.82;;;1.10;99.90;;;;;;4770124;30;20124;-78
2020/12/05 05:52:04;;;;;;;22.88;13.55;;;1.10;99.90;;;;;;4770304;30;20519;-78
2020/12/05 05:54:37;;;;;;;21.40;12.75;;;1.10;99.90;;;;;;4770351;30;20078;-78
2020/12/05 05:57:13;;;;;;;22.05;13.68;;;1.10;99.90;;;;;;4784822;29;20130;-78
2020/12/05 05:59:44;;;;;;;20.40;12.75;;;1.10;99.90;;;;;;4772998;30;20044;-78
2020/12/05 06:02:14;;;;;;;19.98;12.23;;;1.10;99.90;;;;;;4773237;30;20070;-78
2020/12/05 06:04:43;;;;;;;18.98;11.85;;;1.10;99.90;;;;;;4788258;29;20044;-78
2020/12/05 06:07:18;;;;;;;20.58;12.25;;;1.10;99.90;;;;;;4773775;30;20139;-78
2020/12/05 06:09:52;;;;;;;19.25;12.25;;;1.20;99.90;;;;;;4771694;30;20051;-78
2020/12/05 06:12:20;;;;;;;20.80;12.27;;;1.20;99.90;;;;;;4773200;30;20489;-78
2020/12/05 06:14:50;;;;;;;18.27;12.18;;;1.20;99.90;;;;;;4773096;30;20170;-78
2020/12/05 06:17:19;;;;;;;18.23;11.18;;;1.20;99.90;;;;;;4772905;30;20062;-78
2020/12/05 06:19:48;;;;;;;21.00;10.98;;;1.20;99.90;;;;;;4787789;30;20059;-78
2020/12/05 06:22:38;;;;;;;24.75;13.80;;;1.20;99.90;;;;;;4774732;30;20401;-78
2020/12/05 06:25:16;;;;;;;31.92;18.75;;;1.20;99.90;;;;;;4773230;30;20156;-78
2020/12/05 06:27:51;;;;;;;20.52;13.55;;;1.20;99.90;;;;;;4787687;30;20070;-78
2020/12/05 06:30:19;;;;;;;38.28;22.17;;;1.30;99.90;;;;;;4787892;30;20146;-78
2020/12/05 06:32:55;;;;;;;19.08;12.27;;;1.30;99.90;;;;;;4767264;30;20102;-79
2020/12/05 06:35:30;;;;;;;20.63;12.82;;;1.30;99.90;;;;;;4773005;30;20083;-79
2020/12/05 06:37:58;;;;;;;17.75;11.60;;;1.30;99.90;;;;;;4758019;30;20500;-79
2020/12/05 06:40:27;;;;;;;26.13;17.25;;;1.30;99.90;;;;;;4764260;30;20138;-79
2020/12/05 06:42:56;;;;;;;208.93;106.20;;;1.30;99.90;;;;;;4770371;30;20105;-79
2020/12/05 06:45:27;;;;;;;40.67;24.95;;;1.30;99.90;;;;;;4770012;30;20101;-78
2020/12/05 06:48:09;;;;;;;18.08;11.30;;;1.20;99.90;;;;;;4755586;30;20062;-78
2020/12/05 06:50:44;;;;;;;21.52;13.55;;;1.20;99.90;;;;;;4757453;30;20109;-78
2020/12/05 06:53:20;;;;;;;18.27;11.93;;;1.20;99.90;;;;;;4757179;30;20101;-78
2020/12/05 06:55:49;;;;;;;18.15;11.55;;;1.20;99.90;;;;;;4755309;30;20554;-79
2020/12/05 06:58:31;;;;;;;16.25;10.30;;;1.20;99.90;;;;;;4769639;30;20059;-79
2020/12/05 07:01:00;;;;;;;14.07;9.30;;;1.20;99.90;;;;;;4768881;30;20064;-79
2020/12/05 07:03:31;;;;;;;11.95;8.25;;;1.30;99.90;;;;;;4754814;30;20067;-78
2020/12/05 07:06:03;;;;;;;23.77;14.55;;;1.30;99.90;;;;;;4770203;30;20044;-79
2020/12/05 07:08:38;;;;;;;15.25;9.90;;;1.30;99.90;;;;;;4770739;30;20054;-79
2020/12/05 07:11:12;;;;;;;14.30;9.23;;;1.40;99.90;;;;;;4770335;30;20048;-79
2020/12/05 07:13:52;;;;;;;14.95;9.88;;;1.40;99.90;;;;;;4769692;30;20117;-80
2020/12/05 07:16:28;;;;;;;14.43;10.15;;;1.40;99.90;;;;;;4755547;30;20119;-79
2020/12/05 07:18:57;;;;;;;31.67;15.98;;;1.40;99.90;;;;;;4770985;30;20117;-79
2020/12/05 07:21:27;;;;;;;14.65;9.75;;;1.40;99.90;;;;;;4770537;30;20059;-79
2020/12/05 07:23:56;;;;;;;12.57;8.77;;;1.50;99.90;;;;;;4770355;30;20085;-80
2020/12/05 07:26:24;;;;;;;14.93;9.43;;;1.50;99.90;;;;;;4785510;30;20052;-80
2020/12/05 07:28:53;;;;;;;14.48;9.90;;;1.50;99.90;;;;;;4770696;30;20093;-79
2020/12/05 07:31:25;;;;;;;16.17;11.20;;;1.50;99.90;;;;;;4755404;30;20051;-79
2020/12/05 07:33:53;;;;;;;14.13;9.50;;;1.50;99.90;;;;;;4755148;30;20051;-79
2020/12/05 07:36:21;;;;;;;14.50;8.63;;;1.40;99.90;;;;;;4770300;30;20048;-78
2020/12/05 07:38:53;;;;;;;19.90;11.50;;;1.50;99.90;;;;;;4769921;30;20055;-78
2020/12/05 07:41:26;;;;;;;17.48;10.02;;;1.50;99.90;;;;;;4768448;30;20047;-78
2020/12/05 07:43:57;;;;;;;14.85;9.63;;;1.50;99.90;;;;;;4770005;30;20436;-80
2020/12/05 07:46:24;;;;;;;14.38;9.25;;;1.50;99.90;;;;;;4755324;30;20060;-79
2020/12/05 07:48:59;;;;;;;13.38;9.15;;;1.50;99.90;;;;;;4755449;30;20485;-79
2020/12/05 07:51:27;;;;;;;12.15;7.90;;;1.50;99.90;;;;;;4770588;30;20405;-79
2020/12/05 07:53:55;;;;;;;13.43;9.23;;;1.50;99.90;;;;;;4755411;30;20074;-79
2020/12/05 07:56:25;;;;;;;13.45;9.40;;;1.50;99.90;;;;;;4755078;30;20052;-79
2020/12/05 07:58:58;;;;;;;14.43;9.55;;;1.60;99.90;;;;;;4754959;30;20076;-79
2020/12/05 08:01:32;;;;;;;16.05;10.38;;;1.60;99.90;;;;;;4769850;30;20139;-78
2020/12/05 08:04:11;;;;;;;14.93;9.35;;;1.60;99.90;;;;;;4755256;30;20052;-79
2020/12/05 08:06:52;;;;;;;16.55;9.57;;;1.60;99.90;;;;;;4754903;30;20062;-79
2020/12/05 08:09:32;;;;;;;12.57;8.50;;;1.60;99.90;;;;;;4755239;30;20079;-79
2020/12/05 08:12:01;;;;;;;12.27;8.00;;;1.60;99.90;;;;;;4774140;30;20052;-82
2020/12/05 08:14:31;;;;;;;15.20;9.80;;;1.70;99.90;;;;;;4755042;30;20067;-81
2020/12/05 08:17:02;;;;;;;14.15;9.23;;;1.70;99.90;;;;;;4769576;30;20071;-80
2020/12/05 08:19:30;;;;;;;15.90;12.23;;;1.60;99.90;;;;;;4770163;30;20051;-80
2020/12/05 08:22:07;;;;;;;15.98;11.65;;;1.60;99.90;;;;;;4768973;30;20124;-79
2020/12/05 08:24:55;;;;;;;13.65;9.88;;;1.60;99.90;;;;;;4743766;30;20062;-79
2020/12/05 08:27:23;;;;;;;18.20;11.43;;;1.50;99.90;;;;;;4785763;30;20528;-82
2020/12/05 08:29:53;;;;;;;13.25;9.45;;;1.60;99.90;;;;;;4786846;30;20423;-78
2020/12/05 08:32:21;;;;;;;13.07;8.68;;;1.60;99.90;;;;;;4768083;30;20061;-80
2020/12/05 08:34:50;;;;;;;16.10;9.48;;;1.60;99.90;;;;;;4772638;30;20047;-79
2020/12/05 08:37:24;;;;;;;15.70;9.43;;;1.60;99.90;;;;;;4772529;30;20527;-79
2020/12/05 08:39:52;;;;;;;16.75;11.32;;;1.70;99.90;;;;;;4772437;30;20123;-79
2020/12/05 08:42:20;;;;;;;23.35;16.50;;;1.70;99.90;;;;;;4757119;30;20051;-78
2020/12/05 08:44:48;;;;;;;15.13;10.45;;;1.60;99.90;;;;;;4771865;30;20602;-80
2020/12/05 08:47:16;;;;;;;12.65;8.07;;;1.60;99.90;;;;;;4772207;30;20043;-79
2020/12/05 08:49:45;;;;;;;16.92;10.00;;;1.60;99.90;;;;;;4771945;30;20047;-80
2020/12/05 08:52:13;;;;;;;46.97;22.25;;;1.60;99.90;;;;;;4772744;30;20081;-79
2020/12/05 08:54:51;;;;;;;17.35;10.60;;;1.60;99.90;;;;;;4771740;30;20464;-79
2020/12/05 08:57:24;;;;;;;14.70;9.57;;;1.50;99.90;;;;;;4757606;30;20058;-79
2020/12/05 09:00:00;;;;;;;14.10;10.20;;;1.50;99.90;;;;;;4771501;30;20116;-79
2020/12/05 09:02:36;;;;;;;33.55;20.63;;;1.50;99.90;;;;;;4773102;30;20079;-79
2020/12/05 09:05:04;;;;;;;22.08;15.05;;;1.50;99.90;;;;;;4772147;30;20074;-78
2020/12/05 09:07:32;;;;;;;14.57;9.88;;;1.50;99.90;;;;;;4771964;30;20082;-78
2020/12/05 09:09:59;;;;;;;12.88;8.50;;;1.50;99.90;;;;;;4771733;30;20533;-79
2020/12/05 09:12:34;;;;;;;13.43;9.02;;;1.40;99.90;;;;;;4772321;30;20156;-79
2020/12/05 09:15:07;;;;;;;26.48;15.77;;;1.50;99.90;;;;;;4771982;30;20058;-80
2020/12/05 09:17:40;;;;;;;13.83;9.30;;;1.50;99.90;;;;;;4757426;30;20553;-79
2020/12/05 09:20:15;;;;;;;15.45;8.55;;;1.50;99.90;;;;;;4771303;30;20047;-79
2020/12/05 09:22:57;;;;;;;14.32;9.23;;;1.50;99.90;;;;;;4770899;30;20116;-79
2020/12/05 09:25:33;;;;;;;14.93;9.23;;;1.60;99.90;;;;;;4771276;30;20142;-79
2020/12/05 09:28:02;;;;;;;13.70;9.15;;;1.60;99.90;;;;;;4757386;30;20097;-79
2020/12/05 09:30:30;;;;;;;19.15;10.30;;;1.70;99.90;;;;;;4771680;29;20112;-79
2020/12/05 09:32:57;;;;;;;19.02;12.07;;;1.70;99.90;;;;;;4771591;30;20051;-78
2020/12/05 09:35:25;;;;;;;18.73;11.82;;;1.80;99.90;;;;;;4771070;30;20051;-79
2020/12/05 09:37:53;;;;;;;24.23;15.02;;;1.80;99.90;;;;;;4770984;30;20047;-79
2020/12/05 09:40:21;;;;;;;29.50;19.42;;;1.90;99.90;;;;;;4771326;30;20055;-80
2020/12/05 09:42:48;;;;;;;43.50;29.40;;;1.80;99.90;;;;;;4756080;30;20105;-79
2020/12/05 09:45:16;;;;;;;45.50;29.67;;;1.90;99.90;;;;;;4771665;30;20473;-79
2020/12/05 09:47:44;;;;;;;16.60;12.27;;;1.90;99.90;;;;;;4772207;30;20055;-79
2020/12/05 09:50:14;;;;;;;18.50;12.60;;;1.90;99.90;;;;;;4770507;30;20488;-79
2020/12/05 09:52:42;;;;;;;18.67;12.82;;;1.90;99.90;;;;;;4770582;30;20100;-78
2020/12/05 09:55:10;;;;;;;16.30;10.68;;;1.90;99.90;;;;;;4785762;29;20091;-79
2020/12/05 09:57:43;;;;;;;16.83;9.93;;;1.90;99.90;;;;;;4784601;30;20051;-79
2020/12/05 10:00:12;;;;;;;16.52;11.90;;;1.90;99.90;;;;;;4770521;30;20047;-79
2020/12/05 10:02:45;;;;;;;16.65;11.10;;;1.90;99.90;;;;;;4786146;29;20048;-79
2020/12/05 10:05:18;;;;;;;17.77;12.75;;;1.90;99.90;;;;;;4770860;30;20051;-78
2020/12/05 10:07:51;;;;;;;15.95;10.40;;;1.80;99.90;;;;;;4784810;29;20416;-83
2020/12/05 10:10:24;;;;;;;15.80;10.63;;;1.90;99.90;;;;;;4788421;29;20059;-81
2020/12/05 10:12:53;;;;;;;21.80;13.75;;;1.90;99.90;;;;;;4788277;30;20065;-79
2020/12/05 10:15:21;;;;;;;13.00;8.63;;;1.90;99.90;;;;;;4784851;29;20070;-79
2020/12/05 10:17:50;;;;;;;47.95;28.40;;;1.90;99.90;;;;;;4773445;30;20130;-81
2020/12/05 10:20:17;;;;;;;22.70;14.10;;;1.80;99.90;;;;;;4772074;30;20051;-77
2020/12/05 10:35:45;;;;;;;14.07;8.82;;;2.10;99.90;;;;;;4904830;24;20046;-80
2020/12/05 10:38:24;;;;;;;13.73;8.93;;;2.10;99.90;;;;;;4789939;29;20701;-79
2020/12/05 10:41:36;;;;;;;14.45;10.00;;;2.10;99.90;;;;;;4790639;29;20039;-78
2020/12/05 10:49:48;;;;;;;12.48;8.13;;;2.00;99.90;;;;;;4732055;30;20142;-78
2020/12/05 10:59:13;;;;;;;16.20;10.68;;;2.10;99.90;;;;;;4652398;30;20065;-77
2020/12/05 11:02:41;;;;;;;15.55;10.68;;;2.10;99.90;;;;;;4649758;30;20081;-78
2020/12/05 11:05:13;;;;;;;19.10;12.90;;;2.20;99.90;;;;;;4653910;30;20054;-79
2020/12/05 11:07:40;;;;;;;18.58;11.63;;;2.20;99.90;;;;;;4718534;30;20064;-79
2020/12/05 11:10:15;;;;;;;19.40;11.85;;;2.20;99.90;;;;;;4718702;30;20049;-78
2020/12/05 11:12:46;;;;;;;15.95;10.88;;;2.20;99.90;;;;;;4718440;30;20127;-78
2020/12/05 11:15:24;;;;;;;17.42;11.15;;;2.20;99.90;;;;;;4715938;30;20457;-78
2020/12/05 11:17:56;;;;;;;15.98;10.23;;;2.30;99.90;;;;;;4702926;30;20351;-78
2020/12/05 11:20:33;;;;;;;15.88;10.20;;;2.30;99.90;;;;;;4706347;30;20113;-79
2020/12/05 11:23:16;;;;;;;14.88;9.82;;;2.30;99.90;;;;;;4757089;30;20055;-79
2020/12/05 11:25:47;;;;;;;17.58;11.30;;;2.30;99.90;;;;;;4756648;30;20516;-79
2020/12/05 11:28:14;;;;;;;17.83;11.73;;;2.30;99.90;;;;;;4741673;30;20583;-79
2020/12/05 11:30:46;;;;;;;23.67;16.02;;;2.30;99.90;;;;;;4742214;30;20055;-79
2020/12/05 11:33:12;;;;;;;34.67;23.65;;;2.30;99.90;;;;;;4741417;30;20150;-79
2020/12/05 11:35:44;;;;;;;25.52;18.85;;;2.30;99.90;;;;;;4755752;30;20044;-79
2020/12/05 11:38:17;;;;;;;17.90;11.75;;;2.30;99.90;;;;;;4759067;30;20054;-78
2020/12/05 11:40:49;;;;;;;14.93;9.88;;;2.40;99.90;;;;;;4759721;30;20135;-79
2020/12/05 11:43:16;;;;;;;16.70;11.18;;;2.40;99.90;;;;;;4773606;30;20065;-78
2020/12/05 11:45:43;;;;;;;15.70;10.27;;;2.40;99.90;;;;;;4773717;30;20074;-79
2020/12/05 11:48:10;;;;;;;20.48;12.98;;;2.40;99.90;;;;;;4773810;30;20508;-79
2020/12/05 11:50:42;;;;;;;19.40;12.15;;;2.40;99.90;;;;;;4773971;30;20109;-79
2020/12/05 11:53:14;;;;;;;18.25;12.00;;;2.40;99.90;;;;;;4759642;30;20056;-79
2020/12/05 11:55:45;;;;;;;23.35;12.95;;;2.50;99.90;;;;;;4773443;30;20051;-79
2020/12/05 11:58:12;;;;;;;18.27;11.65;;;2.50;99.90;;;;;;4758803;30;20543;-79
2020/12/05 12:00:44;;;;;;;20.75;11.88;;;2.50;99.90;;;;;;4759218;30;20058;-78
2020/12/05 12:03:15;;;;;;;15.68;10.35;;;2.60;99.90;;;;;;4772215;30;20048;-78
2020/12/05 12:05:42;;;;;;;18.90;12.52;;;2.60;99.90;;;;;;4773437;30;20059;-79
2020/12/05 12:08:13;;;;;;;21.40;12.80;;;2.70;99.90;;;;;;4759062;30;20138;-79
2020/12/05 12:10:40;;;;;;;16.85;10.90;;;2.80;99.90;;;;;;4758358;30;20569;-79
2020/12/05 12:16:16;;;;;;;18.48;11.55;;;2.90;99.90;;;;;;4943779;24;20069;-79
2020/12/05 12:18:45;;;;;;;17.75;11.23;;;2.80;99.90;;;;;;4791005;29;20109;-79
2020/12/05 12:21:11;;;;;;;14.25;10.07;;;2.80;99.90;;;;;;4790991;29;20059;-79
2020/12/05 12:23:38;;;;;;;17.92;10.25;;;2.70;99.90;;;;;;4783536;30;20112;-79
2020/12/05 12:26:10;;;;;;;13.85;9.10;;;2.70;99.90;;;;;;4773817;30;20130;-79
2020/12/05 12:28:36;;;;;;;14.27;9.73;;;2.70;99.90;;;;;;4773032;30;20074;-79
2020/12/05 12:31:03;;;;;;;18.80;11.77;;;2.70;99.90;;;;;;4772838;30;20051;-79
2020/12/05 12:33:30;;;;;;;18.95;11.63;;;2.70;99.90;;;;;;4772632;30;20055;-80
2020/12/05 12:36:02;;;;;;;40.90;18.17;;;2.70;99.90;;;;;;4772669;30;20054;-79
2020/12/05 12:38:34;;;;;;;43.15;21.55;;;2.70;99.90;;;;;;4772854;30;20039;-79
2020/12/05 12:41:05;;;;;;;24.35;14.70;;;2.70;99.90;;;;;;4758414;30;20055;-79
2020/12/05 12:43:32;;;;;;;22.17;14.38;;;2.70;99.90;;;;;;4772603;30;20052;-79
2020/12/05 12:45:59;;;;;;;20.45;13.07;;;2.60;99.90;;;;;;4757968;30;20427;-79
2020/12/05 12:50:57;;;;;;;16.75;10.77;;;2.70;99.90;;;;;;4772587;30;20124;-79
2020/12/05 12:53:24;;;;;;;20.83;12.65;;;2.90;99.90;;;;;;4757731;30;20062;-79
2020/12/05 12:55:55;;;;;;;20.05;12.80;;;3.10;99.90;;;;;;4758675;30;20051;-78
2020/12/05 12:58:39;;;;;;;21.83;14.00;;;3.20;99.90;;;;;;4758781;30;20058;-80
2020/12/05 13:01:06;;;;;;;24.60;14.20;;;3.30;99.90;;;;;;4772987;30;20465;-80
2020/12/05 13:03:33;;;;;;;22.05;12.90;;;3.40;99.90;;;;;;4757836;30;20058;-78
2020/12/05 13:06:04;;;;;;;18.95;12.85;;;3.50;99.90;;;;;;4772681;30;20051;-79
2020/12/05 13:08:36;;;;;;;34.45;24.55;;;3.50;99.90;;;;;;4758041;30;20534;-79
2020/12/05 13:11:03;;;;;;;21.77;15.05;;;3.40;99.90;;;;;;4757835;30;20138;-79
2020/12/05 13:13:29;;;;;;;21.80;13.77;;;3.30;99.90;;;;;;4772381;30;20534;-79
2020/12/05 13:15:56;;;;;;;17.00;11.10;;;3.20;99.90;;;;;;4757476;30;20055;-79
2020/12/05 13:18:23;;;;;;;16.55;9.93;;;3.10;99.90;;;;;;4772365;30;20054;-79
2020/12/05 13:20:54;;;;;;;16.05;10.38;;;3.00;99.90;;;;;;4773351;30;20436;-79
2020/12/05 13:23:21;;;;;;;15.93;10.00;;;2.90;99.90;;;;;;4772036;30;20051;-79
2020/12/05 13:25:49;;;;;;;18.88;11.63;;;2.90;99.90;;;;;;4772322;30;20112;-79
2020/12/05 13:28:15;;;;;;;20.50;12.65;;;2.80;99.90;;;;;;4772514;30;20077;-79